createdAt,value
2023-09-27T00:02:57.458Z,18.64
2023-09-27T00:07:59.526Z,18.67
2023-09-27T00:13:01.566Z,18.65
2023-09-27T00:18:03.876Z,18.65
2023-09-27T00:23:07.071Z,18.61
2023-09-27T00:28:09.213Z,18.56
2023-09-27T00:33:11.128Z,18.51
2023-09-27T00:38:13.129Z,18.48
2023-09-27T00:43:35.297Z,18.28
2023-09-27T00:48:38.228Z,18.17
2023-09-27T00:53:41.140Z,18.12
2023-09-27T00:58:43.336Z,18.00
2023-09-27T01:03:45.462Z,17.98
2023-09-27T01:08:48.904Z,18.03
2023-09-27T01:13:50.879Z,17.94
2023-09-27T01:18:53.166Z,17.89
2023-09-27T01:23:56.292Z,17.90
2023-09-27T01:28:58.482Z,17.87
2023-09-27T01:34:00.486Z,17.74
2023-09-27T01:39:04.383Z,17.64
2023-09-27T01:44:06.456Z,17.68
2023-09-27T01:49:08.785Z,17.59
2023-09-27T01:54:10.795Z,17.66
2023-09-27T01:59:12.971Z,17.65
2023-09-27T02:04:15.082Z,17.66
2023-09-27T02:09:17.564Z,17.70
2023-09-27T02:14:19.500Z,17.66
2023-09-27T02:19:21.747Z,17.58
2023-09-27T02:24:23.935Z,17.45
2023-09-27T02:29:27.925Z,17.42
2023-09-27T02:34:30.172Z,17.44
2023-09-27T02:39:32.374Z,17.41
2023-09-27T02:44:34.545Z,17.37
2023-09-27T02:49:36.782Z,17.34
2023-09-27T02:54:38.811Z,17.25
2023-09-27T02:59:40.753Z,17.16
2023-09-27T03:04:42.635Z,17.10
2023-09-27T03:09:45.194Z,17.01
2023-09-27T03:14:47.362Z,16.86
2023-09-27T03:19:49.412Z,16.73
2023-09-27T03:24:52.323Z,16.70
2023-09-27T03:29:54.579Z,16.58
2023-09-27T03:34:56.981Z,16.65
2023-09-27T03:39:58.941Z,16.71
2023-09-27T03:45:00.977Z,16.76
2023-09-27T03:50:04.525Z,16.72
2023-09-27T03:55:07.358Z,16.70
2023-09-27T04:00:16.427Z,16.67
2023-09-27T04:05:24.542Z,16.66
2023-09-27T04:10:28.320Z,16.60
2023-09-27T04:15:30.426Z,16.57
2023-09-27T04:20:34.328Z,16.53
2023-09-27T04:25:38.993Z,16.47
2023-09-27T04:30:41.178Z,16.40
2023-09-27T04:35:43.155Z,16.40
2023-09-27T04:40:45.321Z,16.37
2023-09-27T04:45:50.213Z,16.37
2023-09-27T04:50:52.497Z,16.36
2023-09-27T04:55:54.690Z,16.33
2023-09-27T05:00:57.063Z,16.30
2023-09-27T05:05:59.373Z,16.28
2023-09-27T05:11:01.521Z,16.25
2023-09-27T05:16:04.416Z,16.21
2023-09-27T05:21:07.470Z,16.21
2023-09-27T05:26:13.307Z,16.21
2023-09-27T05:31:15.532Z,16.20
2023-09-27T05:36:17.647Z,16.17
2023-09-27T05:41:19.638Z,16.17
2023-09-27T05:46:21.726Z,16.09
2023-09-27T05:51:23.833Z,15.99
2023-09-27T05:56:26.160Z,15.96
2023-09-27T06:01:28.506Z,15.93
2023-09-27T06:06:30.939Z,15.94
2023-09-27T06:11:33.989Z,15.93
2023-09-27T06:16:40.845Z,15.99
2023-09-27T06:21:44.345Z,16.04
2023-09-27T06:26:46.361Z,16.03
2023-09-27T06:31:51.912Z,16.03
2023-09-27T06:36:57.865Z,16.08
2023-09-27T06:41:59.952Z,16.16
2023-09-27T06:47:01.877Z,16.18
2023-09-27T06:52:03.921Z,16.28
2023-09-27T06:57:06.159Z,16.34
2023-09-27T07:02:10.001Z,16.39
2023-09-27T07:07:12.220Z,16.49
2023-09-27T07:12:14.521Z,16.55
2023-09-27T07:17:16.500Z,16.60
2023-09-27T07:22:19.115Z,16.68
2023-09-27T07:27:21.513Z,16.76
2023-09-27T07:32:23.642Z,16.87
2023-09-27T07:37:26.118Z,16.97
2023-09-27T07:42:28.275Z,17.05
2023-09-27T07:47:31.082Z,17.19
2023-09-27T07:52:33.295Z,17.28
2023-09-27T07:57:35.984Z,17.36
2023-09-27T08:02:39.613Z,17.52
2023-09-27T08:07:41.947Z,17.68
2023-09-27T08:12:44.426Z,17.87
2023-09-27T08:17:47.603Z,18.03
2023-09-27T08:22:50.085Z,18.24
2023-09-27T08:27:52.306Z,18.54
2023-09-27T08:32:54.535Z,18.83
2023-09-27T08:37:56.587Z,19.19
2023-09-27T08:42:59.437Z,19.52
2023-09-27T08:48:01.426Z,19.96
2023-09-27T08:53:03.722Z,20.57
2023-09-27T08:58:05.802Z,21.85
2023-09-27T09:03:08.565Z,22.98
2023-09-27T09:08:10.886Z,23.78
2023-09-27T09:13:13.584Z,24.81
2023-09-27T09:18:32.713Z,24.80
2023-09-27T09:23:36.583Z,25.50
2023-09-27T09:29:00.954Z,26.07
2023-09-27T09:34:08.677Z,26.19
2023-09-27T09:39:18.857Z,25.83
2023-09-27T09:44:22.989Z,25.88
2023-09-27T09:49:25.278Z,26.26
2023-09-27T09:55:17.769Z,26.86
2023-09-27T10:00:28.534Z,27.17
2023-09-27T10:05:52.516Z,27.66
2023-09-27T10:10:54.820Z,27.80
2023-09-27T10:15:57.146Z,27.46
2023-09-27T10:21:09.621Z,27.84
2023-09-27T10:26:18.480Z,27.78
2023-09-27T10:31:21.552Z,28.21
2023-09-27T10:36:23.829Z,28.08
2023-09-27T10:41:40.230Z,28.37
2023-09-27T10:46:52.419Z,28.29
2023-09-27T10:52:05.950Z,28.42
2023-09-27T10:57:09.568Z,28.06
2023-09-27T11:02:12.146Z,28.22
2023-09-27T11:07:14.386Z,28.39
2023-09-27T11:12:23.824Z,28.45
2023-09-27T11:17:27.097Z,27.99
2023-09-27T11:22:30.463Z,27.29
2023-09-27T11:27:34.091Z,26.87
2023-09-27T11:32:50.932Z,26.60
2023-09-27T11:38:13.857Z,26.57
2023-09-27T11:43:16.418Z,26.33
2023-09-27T11:48:33.942Z,26.06
2023-09-27T11:53:36.049Z,26.05
2023-09-27T11:58:39.982Z,26.11
2023-09-27T12:03:43.247Z,26.18
2023-09-27T12:08:46.218Z,26.25
2023-09-27T12:13:48.339Z,26.36
2023-09-27T12:18:50.778Z,26.06
2023-09-27T12:23:53.306Z,26.15
2023-09-27T12:28:56.523Z,26.09
2023-09-27T12:33:59.335Z,25.95
2023-09-27T12:39:02.223Z,26.04
2023-09-27T12:44:04.688Z,26.04
2023-09-27T12:49:06.909Z,26.09
2023-09-27T12:54:09.764Z,26.24
2023-09-27T12:59:13.007Z,26.38
2023-09-27T13:04:15.698Z,26.32
2023-09-27T13:09:18.904Z,26.39
2023-09-27T13:14:21.131Z,26.41
2023-09-27T13:19:23.257Z,26.38
2023-09-27T13:24:25.364Z,26.35
2023-09-27T13:29:27.647Z,26.29
2023-09-27T13:34:31.229Z,26.24
2023-09-27T13:39:33.784Z,26.15
2023-09-27T13:44:36.114Z,26.30
2023-09-27T13:49:38.631Z,26.20
2023-09-27T13:54:40.774Z,26.33
2023-09-27T13:59:42.932Z,26.40
2023-09-27T14:04:45.752Z,26.44
2023-09-27T14:09:49.872Z,26.49
2023-09-27T14:14:52.786Z,26.28
2023-09-27T14:19:56.709Z,26.44
2023-09-27T14:24:58.859Z,26.58
2023-09-27T14:30:00.945Z,26.72
2023-09-27T14:35:04.492Z,26.61
2023-09-27T14:40:10.167Z,26.73
2023-09-27T14:45:28.323Z,26.67
2023-09-27T14:50:35.333Z,26.73
2023-09-27T14:55:37.464Z,26.80
2023-09-27T15:00:39.674Z,26.88
2023-09-27T15:05:41.969Z,26.99
2023-09-27T15:10:44.964Z,27.03
2023-09-27T15:15:47.044Z,26.79
2023-09-27T15:20:49.501Z,26.85
2023-09-27T15:25:52.009Z,26.87
2023-09-27T15:30:54.290Z,26.79
2023-09-27T15:36:06.810Z,26.54
2023-09-27T15:41:08.994Z,26.45
2023-09-27T15:46:14.351Z,26.44
2023-09-27T15:51:17.521Z,26.54
2023-09-27T15:56:19.728Z,26.45
2023-09-27T16:01:22.078Z,26.42
2023-09-27T16:06:24.312Z,26.30
2023-09-27T16:11:27.826Z,26.20
2023-09-27T16:16:30.665Z,26.21
2023-09-27T16:21:33.003Z,26.15
2023-09-27T16:26:35.187Z,26.04
2023-09-27T16:31:37.574Z,25.81
2023-09-27T16:36:39.973Z,25.87
2023-09-27T16:41:42.506Z,25.65
2023-09-27T16:46:44.810Z,25.56
2023-09-27T16:51:47.648Z,25.32
2023-09-27T16:56:49.871Z,25.28
2023-09-27T17:01:52.367Z,25.25
2023-09-27T17:06:55.174Z,25.24
2023-09-27T17:11:58.261Z,25.29
2023-09-27T17:17:00.330Z,25.15
2023-09-27T17:22:03.185Z,25.16
2023-09-27T17:27:05.355Z,24.94
2023-09-27T17:32:08.059Z,24.78
2023-09-27T17:37:11.456Z,24.63
2023-09-27T17:42:13.655Z,24.54
2023-09-27T17:47:15.893Z,24.40
2023-09-27T17:52:18.207Z,24.21
2023-09-27T17:57:20.386Z,24.05
2023-09-27T18:02:22.601Z,23.92
2023-09-27T18:07:25.061Z,23.67
2023-09-27T18:12:27.440Z,23.51
2023-09-27T18:17:31.907Z,23.33
2023-09-27T18:22:34.237Z,23.34
2023-09-27T18:27:36.465Z,23.24
2023-09-27T18:32:38.658Z,23.08
2023-09-27T18:37:41.958Z,23.07
2023-09-27T18:42:44.161Z,22.98
2023-09-27T18:47:48.835Z,22.95
2023-09-27T18:52:52.421Z,22.86
2023-09-27T18:57:54.797Z,22.81
2023-09-27T19:02:57.081Z,22.74
2023-09-27T19:07:59.501Z,22.66
2023-09-27T19:13:01.883Z,22.62
2023-09-27T19:18:05.312Z,22.53
2023-09-27T19:23:07.491Z,22.44
2023-09-27T19:28:10.328Z,22.44
2023-09-27T19:33:12.583Z,22.43
2023-09-27T19:38:15.158Z,22.38
2023-09-27T19:43:17.621Z,22.41
2023-09-27T19:48:19.807Z,22.33
2023-09-27T19:53:23.848Z,22.28
2023-09-27T19:58:26.276Z,22.13
2023-09-27T20:03:28.352Z,22.02
2023-09-27T20:08:30.706Z,21.88
2023-09-27T20:13:32.962Z,21.56
2023-09-27T20:18:35.040Z,21.34
2023-09-27T20:23:38.394Z,21.16
2023-09-27T20:28:41.483Z,21.19
2023-09-27T20:33:43.636Z,21.39
2023-09-27T20:38:45.985Z,21.27
2023-09-27T20:43:48.470Z,21.30
2023-09-27T20:48:50.569Z,21.33
2023-09-27T20:53:52.918Z,21.26
2023-09-27T20:58:55.460Z,21.07
2023-09-27T21:04:00.434Z,21.00
2023-09-27T21:09:07.130Z,20.90
2023-09-27T21:14:10.021Z,20.83
2023-09-27T21:19:12.741Z,20.94
2023-09-27T21:24:15.026Z,20.81
2023-09-27T21:29:17.369Z,20.81
2023-09-27T21:34:19.497Z,20.65
2023-09-27T21:39:23.475Z,20.84
2023-09-27T21:44:25.901Z,20.74
2023-09-27T21:49:28.074Z,20.63
2023-09-27T21:54:30.130Z,20.52
2023-09-27T21:59:32.318Z,20.39
2023-09-27T22:04:34.501Z,20.16
2023-09-27T22:09:37.881Z,20.21
2023-09-27T22:14:48.392Z,20.09
2023-09-27T22:19:51.203Z,20.01
2023-09-27T22:24:53.756Z,19.90
2023-09-27T22:29:57.355Z,19.91
2023-09-27T22:35:01.469Z,19.85
2023-09-27T22:40:19.430Z,19.86
2023-09-27T22:45:36.497Z,19.75
2023-09-27T22:50:46.184Z,19.69
2023-09-27T22:55:59.485Z,19.55
2023-09-27T23:01:22.052Z,19.48
2023-09-27T23:06:24.448Z,19.52
2023-09-27T23:11:29.965Z,19.50
2023-09-27T23:16:48.400Z,19.35
2023-09-27T23:21:50.496Z,19.18
2023-09-27T23:26:52.766Z,19.02
2023-09-27T23:32:00.878Z,18.92
2023-09-27T23:37:13.759Z,18.88
2023-09-27T23:42:24.744Z,18.86
2023-09-27T23:47:27.169Z,18.71
2023-09-27T23:52:29.832Z,18.75
2023-09-27T23:57:32.080Z,18.77
